Time;durP1;ratioP1;P1;durP2;ratioP2;P2;SDS_P1;SDS_P2;PMS_P1;PMS_P2;Temp;Humidity;BMP_temperature;BMP_pressure;BME280_temperature;BME280_humidity;BME280_pressure;Samples;Min_cycle;Max_cycle;Signal;HPM_P1;HPM_P2
2022/04/12 00:01:06;;;;;;;;;;;;;;;19.32;38.87;101250.88;104396;1311;74114;-78
2022/04/12 00:03:40;;;;;;;;;;;;;;;19.32;39.04;101250.36;104247;1312;75455;-85
2022/04/12 00:06:05;;;;;;;;;;;;;;;19.31;38.90;101249.66;104395;1311;61986;-83
2022/04/12 00:09:09;;;;;;;;;;;;;;;19.31;38.91;101254.46;104329;1311;61930;-80
2022/04/12 00:11:34;;;;;;;;;;;;;;;19.31;38.82;101253.80;104294;1311;72615;-82
2022/04/12 00:14:14;;;;;;;;;;;;;;;19.31;38.95;101247.71;104379;1311;62105;-82
2022/04/12 00:16:54;;;;;;;;;;;;;;;19.30;39.02;101242.92;104211;1311;62159;-82
2022/04/12 00:19:48;;;;;;;;;;;;;;;19.30;38.99;101243.65;104391;1310;62097;-81
2022/04/12 00:22:35;;;;;;;;;;;;;;;19.30;38.99;101247.77;104049;1317;73949;-81
2022/04/12 00:25:10;;;;;;;;;;;;;;;19.30;38.85;101242.23;104041;1317;74417;-80
2022/04/12 00:27:58;;;;;;;;;;;;;;;19.30;38.99;101242.95;104040;1316;61994;-81
2022/04/12 00:30:45;;;;;;;;;;;;;;;19.29;38.95;101243.19;103904;1317;62266;-85
2022/04/12 00:33:22;;;;;;;;;;;;;;;;;;;;;
2022/04/12 00:36:29;;;;;;;;;;;;;;;19.29;38.94;101245.50;103944;1317;76713;-86
2022/04/12 00:39:14;;;;;;;;;;;;;;;;;;;;;
2022/04/12 00:42:00;;;;;;;;;;;;;;;19.29;38.99;101244.27;104044;1317;62285;-84
2022/04/12 00:44:57;;;;;;;;;;;;;;;19.28;38.98;101246.25;102979;1323;73971;-82
2022/04/12 00:47:42;;;;;;;;;;;;;;;19.28;39.01;101251.27;102609;1329;76080;-81
2022/04/12 00:50:30;;;;;;;;;;;;;;;19.28;38.97;101253.23;102965;1325;63372;-85
2022/04/12 00:56:14;;;;;;;;;;;;;;;19.28;39.02;101252.38;102485;1331;71522;-83
2022/04/12 00:58:51;;;;;;;;;;;;;;;;;;;;;
2022/04/12 01:01:44;;;;;;;;;;;;;;;;;;;;;
2022/04/12 01:04:58;;;;;;;;;;;;;;;19.27;38.98;101248.11;102954;1325;62062;-84
2022/04/12 01:07:54;;;;;;;;;;;;;;;19.27;39.03;101244.73;102943;1325;72988;-82
2022/04/12 01:10:40;;;;;;;;;;;;;;;19.27;39.00;101243.46;102959;1325;75922;-83
2022/04/12 01:13:27;;;;;;;;;;;;;;;19.27;39.03;101246.67;102822;1325;62124;-86
2022/04/12 01:16:20;;;;;;;;;;;;;;;;;;;;;
2022/04/12 01:19:18;;;;;;;;;;;;;;;19.25;39.00;101246.39;102940;1325;73054;-78
2022/04/12 01:22:07;;;;;;;;;;;;;;;19.26;39.03;101248.14;103084;1323;76824;-83
2022/04/12 01:24:57;;;;;;;;;;;;;;;19.26;39.06;101248.50;103656;1314;61969;-82
2022/04/12 01:27:55;;;;;;;;;;;;;;;19.25;39.04;101245.67;104271;1313;62149;-90
2022/04/12 01:30:58;;;;;;;;;;;;;;;;;;;;;
2022/04/12 01:33:44;;;;;;;;;;;;;;;19.26;39.03;101245.67;104523;1305;76150;-85
2022/04/12 01:36:32;;;;;;;;;;;;;;;19.25;38.94;101239.83;104351;1311;62233;-85
2022/04/12 01:39:37;;;;;;;;;;;;;;;19.25;38.99;101239.29;104373;1311;61955;-82
2022/04/12 01:42:23;;;;;;;;;;;;;;;19.25;39.08;101236.80;104385;1311;73065;-82
2022/04/12 01:45:54;;;;;;;;;;;;;;;19.25;39.00;101238.75;104374;1311;75710;-82
2022/04/12 01:48:05;;;;;;;;;;;;;;;19.24;39.01;101232.39;103600;1319;62155;-80
2022/04/12 01:50:41;;;;;;;;;;;;;;;19.24;38.99;101230.75;103617;1319;62202;-85
2022/04/12 01:53:27;;;;;;;;;;;;;;;19.25;38.96;101231.10;103700;1319;71509;-80
2022/04/12 01:56:24;;;;;;;;;;;;;;;;;;;;;
2022/04/12 01:59:48;;;;;;;;;;;;;;;19.23;38.99;101231.73;103626;1318;62159;-82
2022/04/12 02:02:44;;;;;;;;;;;;;;;;;;;;;
2022/04/12 02:05:41;;;;;;;;;;;;;;;;;;;;;
2022/04/12 02:08:48;;;;;;;;;;;;;;;19.22;39.07;101235.86;103662;1319;76988;-83
2022/04/12 02:11:36;;;;;;;;;;;;;;;;;;;;;
2022/04/12 02:14:56;;;;;;;;;;;;;;;19.22;39.01;101241.04;104025;1314;61958;-82
2022/04/12 02:17:30;;;;;;;;;;;;;;;19.22;39.00;101239.09;104222;1313;72782;-80
2022/04/12 02:20:25;;;;;;;;;;;;;;;19.22;39.07;101241.06;104283;1313;75707;-85
2022/04/12 02:23:15;;;;;;;;;;;;;;;;;;;;;
2022/04/12 02:26:14;;;;;;;;;;;;;;;19.22;39.21;101238.05;104027;1314;61999;-82
2022/04/12 02:28:51;;;;;;;;;;;;;;;19.22;39.07;101236.61;104146;1314;72941;-83
2022/04/12 02:31:43;;;;;;;;;;;;;;;19.21;38.99;101238.25;104083;1314;75606;-84
2022/04/12 02:34:44;;;;;;;;;;;;;;;;;;;;;
2022/04/12 02:37:41;;;;;;;;;;;;;;;19.21;39.07;101233.83;103224;1322;62305;-82
2022/04/12 02:40:18;;;;;;;;;;;;;;;19.21;39.12;101233.83;103217;1323;74892;-85
2022/04/12 02:43:24;;;;;;;;;;;;;;;19.20;39.09;101234.41;103209;1322;74455;-83
2022/04/12 02:46:01;;;;;;;;;;;;;;;;;;;;;
2022/04/12 02:49:01;;;;;;;;;;;;;;;19.20;39.09;101232.80;103000;1322;62117;-83
2022/04/12 02:51:56;;;;;;;;;;;;;;;19.20;39.03;101236.73;103249;1323;72663;-80
2022/04/12 02:54:25;;;;;;;;;;;;;;;19.19;39.09;101237.98;103210;1322;76560;-85
2022/04/12 02:57:28;;;;;;;;;;;;;;;19.19;39.07;101239.27;103214;1319;62040;-86
2022/04/12 03:00:35;;;;;;;;;;;;;;;;;;;;;
2022/04/12 03:03:24;;;;;;;;;;;;;;;;;;;;;
2022/04/12 03:06:18;;;;;;;;;;;;;;;19.19;39.11;101239.45;103973;1316;74262;-84
2022/04/12 03:09:45;;;;;;;;;;;;;;;19.19;39.15;101241.06;103000;1325;62017;-82
2022/04/12 03:12:10;;;;;;;;;;;;;;;19.18;39.02;101242.16;102762;1329;62225;-83
2022/04/12 03:14:59;;;;;;;;;;;;;;;19.18;39.00;101241.98;103012;1323;72999;-84
2022/04/12 03:17:59;;;;;;;;;;;;;;;;;;;;;
2022/04/12 03:20:51;;;;;;;;;;;;;;;19.18;39.05;101239.70;103267;1323;62103;-82
2022/04/12 03:23:26;;;;;;;;;;;;;;;19.18;39.04;101244.51;103245;1322;62258;-85
2022/04/12 03:26:13;;;;;;;;;;;;;;;;;;;;;
2022/04/12 03:29:29;;;;;;;;;;;;;;;;;;;;;
2022/04/12 03:31:57;;;;;;;;;;;;;;;19.17;39.06;101254.20;102460;1331;61993;-83
2022/04/12 03:34:39;;;;;;;;;;;;;;;19.17;38.94;101259.19;102434;1331;62266;-83
2022/04/12 03:37:07;;;;;;;;;;;;;;;19.16;38.93;101262.44;102537;1332;74122;-85
2022/04/12 03:40:26;;;;;;;;;;;;;;;;;;;;;
2022/04/12 03:43:01;;;;;;;;;;;;;;;19.15;38.94;101266.25;102141;1332;62038;-82
2022/04/12 03:45:41;;;;;;;;;;;;;;;19.15;38.78;101267.85;102468;1330;62116;-86
2022/04/12 03:48:49;;;;;;;;;;;;;;;;;;;;;
2022/04/12 03:51:15;;;;;;;;;;;;;;;19.14;38.72;101269.33;103644;1319;75419;-80
2022/04/12 03:53:54;;;;;;;;;;;;;;;19.14;38.75;101275.23;103364;1321;62105;-82
2022/04/12 03:57:00;;;;;;;;;;;;;;;19.14;38.72;101277.39;103445;1319;62016;-82
2022/04/12 03:59:33;;;;;;;;;;;;;;;19.13;38.70;101279.55;103461;1319;72750;-86
2022/04/12 04:02:10;;;;;;;;;;;;;;;;;;;;;
2022/04/12 04:04:38;;;;;;;;;;;;;;;19.13;38.60;101282.96;103351;1320;61967;-83
2022/04/12 04:07:40;;;;;;;;;;;;;;;19.13;38.65;101278.52;103520;1320;62298;-83
2022/04/12 04:10:20;;;;;;;;;;;;;;;19.13;38.59;101278.35;103166;1322;72759;-83
2022/04/12 04:13:29;;;;;;;;;;;;;;;19.12;38.53;101276.77;103361;1320;74314;-83
2022/04/12 04:19:13;;;;;;;;;;;;;;;19.12;38.43;101280.32;103030;1322;62017;-83
2022/04/12 04:22:10;;;;;;;;;;;;;;;;;;;;;
2022/04/12 04:24:54;;;;;;;;;;;;;;;19.13;38.48;101283.87;103393;1320;75854;-82
2022/04/12 04:27:49;;;;;;;;;;;;;;;19.13;38.40;101284.94;103534;1317;62136;-83
2022/04/12 04:30:24;;;;;;;;;;;;;;;19.13;38.35;101289.40;103306;1317;61966;-82
2022/04/12 04:33:14;;;;;;;;;;;;;;;19.12;38.33;101289.80;103535;1317;71576;-82
2022/04/12 04:35:42;;;;;;;;;;;;;;;19.13;38.37;101294.75;103165;1316;76642;-81
2022/04/12 04:38:11;;;;;;;;;;;;;;;19.13;38.26;101298.11;103037;1319;60226;-82
2022/04/12 04:40:45;;;;;;;;;;;;;;;19.14;38.16;101300.95;103111;1320;62556;-81
2022/04/12 04:43:18;;;;;;;;;;;;;;;19.15;38.13;101304.98;103229;1320;72959;-80
2022/04/12 04:45:50;;;;;;;;;;;;;;;19.16;37.83;101302.61;103060;1320;62630;-80
2022/04/12 04:48:28;;;;;;;;;;;;;;;19.17;37.85;101307.52;103837;1311;62198;-79
2022/04/12 04:51:19;;;;;;;;;;;;;;;19.18;37.60;101307.85;103809;1311;62327;-81
2022/04/12 04:53:56;;;;;;;;;;;;;;;19.20;37.55;101312.20;103300;1315;73158;-78
2022/04/12 04:56:28;;;;;;;;;;;;;;;19.19;37.23;101311.73;103215;1314;75648;-80
2022/04/12 04:58:54;;;;;;;;;;;;;;;19.17;37.19;101313.06;103304;1314;63810;-80
2022/04/12 05:01:20;;;;;;;;;;;;;;;19.16;36.93;101314.38;103327;1314;62119;-81
2022/04/12 05:03:47;;;;;;;;;;;;;;;19.15;36.90;101313.16;103184;1313;62161;-81
2022/04/12 05:06:16;;;;;;;;;;;;;;;19.15;36.51;101317.85;103154;1313;62152;-80
2022/04/12 05:08:46;;;;;;;;;;;;;;;19.13;36.35;101317.21;103372;1313;62183;-79
2022/04/12 05:11:16;;;;;;;;;;;;;;;19.12;36.30;101316.22;103448;1314;60926;-79
2022/04/12 05:13:41;;;;;;;;;;;;;;;19.12;36.23;101319.04;103341;1313;72823;-80
2022/04/12 05:16:07;;;;;;;;;;;;;;;19.13;35.87;101317.04;103389;1314;62569;-80
2022/04/12 05:18:33;;;;;;;;;;;;;;;19.15;35.78;101316.05;103515;1313;62310;-80
2022/04/12 05:21:01;;;;;;;;;;;;;;;19.17;35.78;101315.39;103550;1313;62099;-80
2022/04/12 05:23:33;;;;;;;;;;;;;;;19.20;35.43;101317.73;103448;1314;62307;-80
2022/04/12 05:25:59;;;;;;;;;;;;;;;19.22;35.29;101320.09;103206;1311;76686;-79
2022/04/12 05:28:26;;;;;;;;;;;;;;;19.24;35.37;101321.74;103560;1313;64380;-84
2022/04/12 05:31:22;;;;;;;;;;;;;;;19.26;35.11;101318.80;103696;1305;62104;-82
2022/04/12 05:33:50;;;;;;;;;;;;;;;19.29;35.04;101321.88;103608;1311;72889;-79
2022/04/12 05:36:16;;;;;;;;;;;;;;;19.32;34.82;101323.50;103441;1311;75479;-79
2022/04/12 05:38:47;;;;;;;;;;;;;;;19.35;34.93;101322.10;103499;1311;61964;-80
2022/04/12 05:41:15;;;;;;;;;;;;;;;19.38;34.80;101323.17;103339;1311;62201;-79
2022/04/12 05:43:40;;;;;;;;;;;;;;;19.39;34.81;101322.55;103354;1311;62200;-79
2022/04/12 05:46:08;;;;;;;;;;;;;;;19.41;34.72;101323.66;103455;1313;62123;-80
2022/04/12 05:48:34;;;;;;;;;;;;;;;19.45;34.55;101323.15;103456;1314;62108;-80
2022/04/12 05:51:00;;;;;;;;;;;;;;;19.48;34.47;101325.82;103148;1314;62089;-79
2022/04/12 05:53:29;;;;;;;;;;;;;;;19.49;34.18;101328.07;103356;1312;62043;-79
2022/04/12 05:55:54;;;;;;;;;;;;;;;19.49;34.23;101328.95;103342;1313;77003;-79
2022/04/12 05:58:20;;;;;;;;;;;;;;;19.50;34.06;101334.29;103320;1314;62061;-80
2022/04/12 06:00:45;;;;;;;;;;;;;;;19.45;33.90;101330.10;103485;1314;62252;-80
2022/04/12 06:03:11;;;;;;;;;;;;;;;19.37;33.88;101332.85;103189;1313;62180;-80
2022/04/12 06:05:36;;;;;;;;;;;;;;;19.34;33.96;101333.21;103349;1314;62294;-82
2022/04/12 06:08:13;;;;;;;;;;;;;;;19.34;33.83;101330.52;103351;1314;75571;-82
2022/04/12 06:10:39;;;;;;;;;;;;;;;19.37;33.64;101333.38;103156;1308;62084;-80
2022/04/12 06:13:06;;;;;;;;;;;;;;;19.41;33.76;101334.25;103765;1306;62199;-81
2022/04/12 06:15:31;;;;;;;;;;;;;;;19.45;33.55;101332.59;103894;1305;62196;-79
2022/04/12 06:18:00;;;;;;;;;;;;;;;19.49;33.72;101334.88;104048;1305;62117;-79
2022/04/12 06:20:25;;;;;;;;;;;;;;;19.53;33.68;101341.98;103820;1305;62228;-78
2022/04/12 06:22:54;;;;;;;;;;;;;;;19.56;33.56;101339.11;104119;1305;62103;-80
2022/04/12 06:25:20;;;;;;;;;;;;;;;19.59;33.54;101340.70;103705;1305;73431;-83
2022/04/12 06:27:50;;;;;;;;;;;;;;;19.62;33.47;101341.64;103974;1305;62009;-79
2022/04/12 06:30:16;;;;;;;;;;;;;;;19.65;33.34;101336.85;104079;1308;62645;-80
2022/04/12 06:32:43;;;;;;;;;;;;;;;19.70;33.39;101337.27;103929;1305;62003;-80
2022/04/12 06:35:17;;;;;;;;;;;;;;;19.72;33.23;101339.29;104508;1307;71710;-80
2022/04/12 06:37:55;;;;;;;;;;;;;;;19.76;33.26;101340.13;103946;1308;62051;-80
2022/04/12 06:40:21;;;;;;;;;;;;;;;19.79;33.24;101339.61;104031;1305;62728;-81
2022/04/12 06:42:51;;;;;;;;;;;;;;;19.81;33.21;101342.58;104187;1305;62238;-80
2022/04/12 06:45:16;;;;;;;;;;;;;;;19.81;33.01;101340.06;104040;1306;71695;-78
2022/04/12 06:47:42;;;;;;;;;;;;;;;19.82;32.73;101341.05;103392;1305;730156;-80
2022/04/12 06:50:14;;;;;;;;;;;;;;;19.85;33.09;101343.92;103992;1305;62112;-79
2022/04/12 06:52:43;;;;;;;;;;;;;;;19.88;32.79;101339.29;104266;1303;62085;-80
2022/04/12 06:55:08;;;;;;;;;;;;;;;19.85;32.61;101342.34;103967;1305;73969;-80
2022/04/12 06:57:36;;;;;;;;;;;;;;;19.74;32.37;101347.39;103742;1304;62146;-80
2022/04/12 07:00:03;;;;;;;;;;;;;;;19.60;32.21;101342.27;103763;1303;62015;-79
2022/04/12 07:02:29;;;;;;;;;;;;;;;19.53;32.42;101344.79;104507;1303;63210;-82
2022/04/12 07:04:54;;;;;;;;;;;;;;;19.49;32.24;101344.14;103792;1305;62117;-79
2022/04/12 07:07:21;;;;;;;;;;;;;;;19.50;32.34;101343.37;103878;1305;62143;-80
2022/04/12 07:09:46;;;;;;;;;;;;;;;19.51;32.47;101347.97;103978;1305;62217;-84
2022/04/12 07:12:12;;;;;;;;;;;;;;;19.55;32.23;101344.85;104058;1306;62108;-80
2022/04/12 07:14:43;;;;;;;;;;;;;;;19.60;32.18;101345.86;104289;1305;62095;-82
2022/04/12 07:17:17;;;;;;;;;;;;;;;19.66;32.28;101346.42;104173;1305;75991;-80
2022/04/12 07:19:43;;;;;;;;;;;;;;;19.72;32.39;101344.11;104081;1305;61989;-80
2022/04/12 07:22:09;;;;;;;;;;;;;;;19.75;32.60;101344.48;104256;1305;62015;-80
2022/04/12 07:24:36;;;;;;;;;;;;;;;19.77;32.51;101349.16;104027;1305;62211;-80
2022/04/12 07:27:02;;;;;;;;;;;;;;;19.80;32.46;101344.56;104226;1305;62190;-80
2022/04/12 07:29:27;;;;;;;;;;;;;;;19.81;32.36;101345.23;104044;1305;62042;-79
2022/04/12 07:31:53;;;;;;;;;;;;;;;19.83;32.33;101348.17;104209;1305;62104;-79
2022/04/12 07:34:19;;;;;;;;;;;;;;;19.83;32.41;101344.05;104166;1306;62108;-78
2022/04/12 07:36:49;;;;;;;;;;;;;;;19.82;32.14;101345.02;104247;1304;62167;-79
2022/04/12 07:39:19;;;;;;;;;;;;;;;19.80;32.00;101342.61;104222;1303;76506;-81
2022/04/12 07:41:45;;;;;;;;;;;;;;;19.79;31.94;101349.43;104250;1305;62084;-79
2022/04/12 07:44:12;;;;;;;;;;;;;;;19.78;31.71;101357.33;104341;1305;62277;-81
2022/04/12 07:46:37;;;;;;;;;;;;;;;19.77;31.79;101351.31;104347;1305;62098;-81
2022/04/12 07:49:03;;;;;;;;;;;;;;;19.75;31.50;101350.89;104207;1305;62150;-80
2022/04/12 07:51:28;;;;;;;;;;;;;;;19.73;31.58;101347.77;104245;1304;62070;-79
2022/04/12 07:53:54;;;;;;;;;;;;;;;19.72;31.24;101346.45;104202;1303;60671;-80
2022/04/12 07:56:19;;;;;;;;;;;;;;;19.67;30.96;101350.99;104094;1305;62218;-81
2022/04/12 07:59:10;;;;;;;;;;;;;;;19.60;30.84;101353.89;104045;1305;73848;-80
2022/04/12 08:01:37;;;;;;;;;;;;;;;19.54;30.97;101351.39;103509;1310;76561;-79
2022/04/12 08:04:05;;;;;;;;;;;;;;;19.52;31.00;101351.67;103475;1311;62183;-80
2022/04/12 08:06:31;;;;;;;;;;;;;;;19.50;31.32;101349.06;103573;1311;60590;-80
2022/04/12 08:08:56;;;;;;;;;;;;;;;19.50;31.37;101353.05;103617;1311;62336;-81
2022/04/12 08:11:24;;;;;;;;;;;;;;;19.47;31.37;101348.73;103500;1311;62588;-80
2022/04/12 08:13:53;;;;;;;;;;;;;;;19.51;31.44;101340.83;103689;1311;62276;-80
2022/04/12 08:16:19;;;;;;;;;;;;;;;19.54;31.25;101343.67;103992;1311;62140;-80
2022/04/12 08:18:44;;;;;;;;;;;;;;;19.56;31.36;101344.48;103620;1311;62163;-80
2022/04/12 08:21:19;;;;;;;;;;;;;;;19.59;31.84;101336.23;103756;1311;62219;-79
2022/04/12 08:23:47;;;;;;;;;;;;;;;19.66;32.36;101336.08;103913;1311;62000;-81
2022/04/12 08:26:31;;;;;;;;;;;;;;;19.72;32.34;101340.70;103823;1311;62258;-79
2022/04/12 08:28:56;;;;;;;;;;;;;;;19.74;32.04;101332.73;103766;1309;72812;-80
2022/04/12 08:31:52;;;;;;;;;;;;;;;19.75;32.10;101332.34;103566;1311;74384;-80
2022/04/12 08:34:18;;;;;;;;;;;;;;;19.76;31.95;101321.02;103956;1311;62072;-79
2022/04/12 08:36:45;;;;;;;;;;;;;;;19.77;31.87;101317.89;103863;1311;62476;-80
2022/04/12 08:39:14;;;;;;;;;;;;;;;19.79;31.73;101320.85;104009;1305;74110;-80
2022/04/12 08:41:40;;;;;;;;;;;;;;;19.81;31.92;101325.39;104303;1303;75292;-80
2022/04/12 08:44:06;;;;;;;;;;;;;;;19.84;32.27;101324.34;104258;1305;62080;-79
2022/04/12 08:46:41;;;;;;;;;;;;;;;19.86;32.48;101322.95;104249;1305;62072;-80
2022/04/12 08:49:06;;;;;;;;;;;;;;;19.88;32.43;101326.44;104423;1304;73578;-80
2022/04/12 08:51:33;;;;;;;;;;;;;;;19.90;32.60;101322.04;103981;1303;62149;-81
2022/04/12 08:54:00;;;;;;;;;;;;;;;19.83;32.25;101312.39;103988;1303;62095;-80
2022/04/12 08:56:26;;;;;;;;;;;;;;;19.78;32.15;101311.81;104040;1302;62005;-81
2022/04/12 08:58:53;;;;;;;;;;;;;;;19.71;31.95;101313.26;103980;1305;62118;-79
2022/04/12 09:01:18;;;;;;;;;;;;;;;19.41;31.35;101310.88;103806;1308;62187;-80
2022/04/12 09:03:45;;;;;;;;;;;;;;;19.32;31.42;101307.81;103983;1306;62204;-79
2022/04/12 09:06:12;;;;;;;;;;;;;;;19.33;31.19;101304.88;104850;1304;60108;-80
2022/04/12 09:08:41;;;;;;;;;;;;;;;19.35;31.20;101303.14;104087;1305;62082;-80
2022/04/12 09:11:09;;;;;;;;;;;;;;;19.39;31.20;101307.77;103954;1306;76124;-80
2022/04/12 09:13:41;;;;;;;;;;;;;;;19.40;31.26;101302.34;104144;1303;62232;-80
2022/04/12 09:16:07;;;;;;;;;;;;;;;19.42;31.25;101301.85;104177;1304;62103;-79
2022/04/12 09:18:37;;;;;;;;;;;;;;;19.46;31.25;101298.25;104019;1307;62182;-80
2022/04/12 09:21:14;;;;;;;;;;;;;;;19.51;31.00;101293.87;104096;1306;76418;-79
2022/04/12 09:23:44;;;;;;;;;;;;;;;19.54;31.09;101288.88;105063;1305;60316;-79
2022/04/12 09:26:15;;;;;;;;;;;;;;;19.57;30.97;101283.84;104267;1305;63998;-79
2022/04/12 09:28:41;;;;;;;;;;;;;;;19.60;31.03;101287.65;105151;1305;74140;-80
2022/04/12 09:31:14;;;;;;;;;;;;;;;19.62;30.99;101288.42;104130;1305;62686;-79
2022/04/12 09:33:40;;;;;;;;;;;;;;;19.59;31.03;101285.39;104449;1306;61957;-80
2022/04/12 09:36:11;;;;;;;;;;;;;;;19.54;30.62;101286.36;104327;1304;62097;-78
2022/04/12 09:39:00;;;;;;;;;;;;;;;19.46;30.33;101278.25;104099;1305;71816;-81
2022/04/12 09:41:27;;;;;;;;;;;;;;;19.43;30.31;101274.68;104324;1304;76557;-80
2022/04/12 09:44:16;;;;;;;;;;;;;;;19.43;30.35;101275.21;104239;1305;62201;-80
2022/04/12 09:46:44;;;;;;;;;;;;;;;19.42;30.26;101277.38;104162;1305;62562;-80
2022/04/12 09:49:10;;;;;;;;;;;;;;;19.42;30.08;101278.65;104118;1305;72874;-80
2022/04/12 09:51:40;;;;;;;;;;;;;;;19.42;29.96;101270.28;103974;1306;76549;-78
2022/04/12 09:54:07;;;;;;;;;;;;;;;19.40;29.90;101265.05;103790;1306;61894;-80
2022/04/12 09:56:34;;;;;;;;;;;;;;;19.35;29.87;101264.78;105394;1305;60853;-80
2022/04/12 09:59:01;;;;;;;;;;;;;;;19.32;29.86;101267.46;104912;1305;73336;-80
2022/04/12 10:01:26;;;;;;;;;;;;;;;19.30;29.64;101264.70;104072;1305;76751;-81
2022/04/12 10:03:57;;;;;;;;;;;;;;;19.30;29.80;101262.01;104031;1304;62086;-80
2022/04/12 10:06:24;;;;;;;;;;;;;;;19.31;29.69;101268.74;105559;1304;60402;-80
2022/04/12 10:08:53;;;;;;;;;;;;;;;19.31;29.71;101269.46;105475;1305;60040;-79
2022/04/12 10:11:19;;;;;;;;;;;;;;;19.29;29.51;101276.94;104246;1304;76597;-79
2022/04/12 10:13:45;;;;;;;;;;;;;;;19.25;29.68;101277.10;104222;1305;62776;-79
2022/04/12 10:16:11;;;;;;;;;;;;;;;19.26;29.53;101273.84;104245;1305;62014;-81
2022/04/12 10:18:39;;;;;;;;;;;;;;;19.28;29.45;101271.64;104056;1305;61980;-80
2022/04/12 10:21:11;;;;;;;;;;;;;;;19.27;29.53;101268.08;104086;1306;62120;-80
2022/04/12 10:23:58;;;;;;;;;;;;;;;19.28;29.47;101261.40;104183;1305;62038;-79
2022/04/12 10:26:29;;;;;;;;;;;;;;;19.29;29.62;101257.08;104244;1305;62094;-83
2022/04/12 10:29:00;;;;;;;;;;;;;;;19.29;29.43;101249.81;104288;1305;73019;-81
2022/04/12 10:31:31;;;;;;;;;;;;;;;19.29;29.59;101250.17;104203;1305;75581;-80
2022/04/12 10:34:08;;;;;;;;;;;;;;;19.29;29.65;101238.18;104166;1305;62018;-82
2022/04/12 10:36:56;;;;;;;;;;;;;;;19.29;29.57;101238.16;104562;1304;62181;-81
2022/04/12 10:39:26;;;;;;;;;;;;;;;19.29;29.66;101238.52;104121;1305;73663;-80
2022/04/12 10:41:53;;;;;;;;;;;;;;;19.28;29.46;101248.74;104244;1305;75792;-79
2022/04/12 10:44:45;;;;;;;;;;;;;;;19.27;29.35;101258.63;104317;1305;61962;-84
2022/04/12 10:47:28;;;;;;;;;;;;;;;19.25;29.26;101253.91;104186;1303;61961;-80
2022/04/12 10:49:58;;;;;;;;;;;;;;;19.20;29.29;101244.90;104348;1303;73827;-79
2022/04/12 10:52:35;;;;;;;;;;;;;;;19.16;29.01;101237.81;103942;1305;78170;-80
2022/04/12 10:55:02;;;;;;;;;;;;;;;18.99;28.43;101232.34;103828;1305;62103;-80
2022/04/12 10:57:30;;;;;;;;;;;;;;;18.79;28.43;101229.48;103782;1305;64090;-80
2022/04/12 11:00:10;;;;;;;;;;;;;;;18.73;28.41;101230.14;103789;1304;73321;-79
2022/04/12 11:02:37;;;;;;;;;;;;;;;18.71;28.40;101235.27;103900;1303;76377;-79
2022/04/12 11:05:02;;;;;;;;;;;;;;;18.69;28.39;101234.48;105471;1305;60464;-80
2022/04/12 11:07:36;;;;;;;;;;;;;;;18.67;28.42;101231.05;105314;1303;61234;-80
2022/04/12 11:10:11;;;;;;;;;;;;;;;18.65;28.48;101234.71;103903;1303;73762;-80
2022/04/12 11:12:45;;;;;;;;;;;;;;;18.70;28.64;101239.23;104038;1305;77221;-80
2022/04/12 11:15:43;;;;;;;;;;;;;;;18.76;28.68;101234.27;103936;1306;62022;-80
2022/04/12 11:18:15;;;;;;;;;;;;;;;18.83;28.63;101235.55;104075;1306;61964;-80
2022/04/12 11:20:42;;;;;;;;;;;;;;;18.87;28.74;101235.46;104305;1305;72883;-80
2022/04/12 11:23:29;;;;;;;;;;;;;;;18.92;28.59;101244.86;104215;1305;75781;-79
2022/04/12 11:26:06;;;;;;;;;;;;;;;18.92;28.39;101241.27;104336;1305;62102;-80
2022/04/12 11:29:06;;;;;;;;;;;;;;;18.96;28.69;101239.67;103713;1314;64904;-81
2022/04/12 11:31:54;;;;;;;;;;;;;;;19.00;28.95;101236.41;103887;1313;72887;-83
2022/04/12 11:34:46;;;;;;;;;;;;;;;19.03;28.89;101234.81;103958;1313;75454;-79
2022/04/12 11:37:11;;;;;;;;;;;;;;;19.03;28.91;101230.38;103061;1318;63511;-80
2022/04/12 11:39:45;;;;;;;;;;;;;;;19.02;29.03;101228.77;102950;1319;62177;-81
2022/04/12 11:42:24;;;;;;;;;;;;;;;19.03;28.97;101227.49;103017;1319;72981;-80
2022/04/12 11:45:01;;;;;;;;;;;;;;;19.03;29.09;101228.21;102967;1319;75571;-81
2022/04/12 11:47:30;;;;;;;;;;;;;;;19.05;29.22;101220.61;103001;1319;62119;-81
2022/04/12 11:49:59;;;;;;;;;;;;;;;19.05;29.07;101215.96;102868;1319;62180;-81
2022/04/12 11:52:25;;;;;;;;;;;;;;;18.99;28.95;101214.17;102674;1320;73769;-79
2022/04/12 11:54:55;;;;;;;;;;;;;;;18.92;28.83;101214.89;102703;1319;62033;-78
2022/04/12 11:57:21;;;;;;;;;;;;;;;18.88;28.73;101207.06;102742;1320;61989;-80
2022/04/12 12:00:09;;;;;;;;;;;;;;;18.83;28.63;101215.74;102361;1326;62028;-80
2022/04/12 12:02:54;;;;;;;;;;;;;;;18.78;28.57;101207.10;102417;1325;73959;-83
2022/04/12 12:05:21;;;;;;;;;;;;;;;18.74;28.38;101205.65;102328;1325;75516;-81
2022/04/12 12:07:47;;;;;;;;;;;;;;;18.72;28.23;101207.59;102561;1319;62137;-79
2022/04/12 12:10:15;;;;;;;;;;;;;;;18.72;28.14;101208.84;102488;1320;62286;-80
2022/04/12 12:12:45;;;;;;;;;;;;;;;18.72;28.15;101206.15;102719;1323;62258;-81
2022/04/12 12:15:23;;;;;;;;;;;;;;;18.74;28.04;101203.35;103369;1312;76749;-80
2022/04/12 12:18:00;;;;;;;;;;;;;;;18.78;28.18;101198.02;103870;1310;62123;-79
2022/04/12 12:20:26;;;;;;;;;;;;;;;18.81;28.24;101193.00;103846;1310;61996;-80
2022/04/12 12:22:53;;;;;;;;;;;;;;;18.85;28.44;101186.35;104334;1309;62108;-79
2022/04/12 12:25:18;;;;;;;;;;;;;;;18.89;28.43;101192.05;103961;1309;62069;-79
2022/04/12 12:27:51;;;;;;;;;;;;;;;18.92;28.55;101196.87;103916;1309;62091;-79
2022/04/12 12:30:27;;;;;;;;;;;;;;;18.94;28.48;101195.16;104035;1307;61997;-80
2022/04/12 12:32:54;;;;;;;;;;;;;;;18.95;28.39;101193.67;104223;1309;72691;-80
2022/04/12 12:35:19;;;;;;;;;;;;;;;18.95;28.42;101186.37;104191;1310;62068;-80
2022/04/12 12:37:47;;;;;;;;;;;;;;;18.93;28.16;101177.00;104259;1305;62069;-80
2022/04/12 12:40:30;;;;;;;;;;;;;;;18.93;28.07;101185.60;104742;1305;62096;-80
2022/04/12 12:43:09;;;;;;;;;;;;;;;18.90;27.98;101184.68;104619;1305;73943;-84
2022/04/12 12:45:37;;;;;;;;;;;;;;;18.83;27.81;101180.91;104560;1303;75478;-81
2022/04/12 12:48:21;;;;;;;;;;;;;;;;;;;;;
2022/04/12 12:51:20;;;;;;;;;;;;;;;18.87;27.68;101178.42;104716;1305;62084;-84
2022/04/12 12:54:07;;;;;;;;;;;;;;;18.89;27.68;101176.69;104273;1308;72917;-84
2022/04/12 12:56:36;;;;;;;;;;;;;;;18.92;27.70;101174.76;104489;1303;76577;-81
2022/04/12 12:59:33;;;;;;;;;;;;;;;18.87;27.41;101178.80;104243;1305;62038;-81
2022/04/12 13:02:21;;;;;;;;;;;;;;;18.76;27.21;101175.45;103901;1311;62078;-81
2022/04/12 13:05:41;;;;;;;;;;;;;;;;;;;;;
2022/04/12 13:08:05;;;;;;;;;;;;;;;18.73;27.30;101174.73;104016;1311;76511;-80
2022/04/12 13:10:40;;;;;;;;;;;;;;;18.73;27.32;101173.84;104010;1311;62055;-81
2022/04/12 13:13:06;;;;;;;;;;;;;;;18.75;27.41;101175.86;103765;1311;62750;-81
2022/04/12 13:15:32;;;;;;;;;;;;;;;18.77;27.32;101175.90;103961;1311;62029;-82
2022/04/12 13:18:38;;;;;;;;;;;;;;;18.80;27.43;101179.15;104053;1311;74487;-82
2022/04/12 13:21:21;;;;;;;;;;;;;;;18.81;27.46;101181.93;103613;1315;62062;-80
2022/04/12 13:24:05;;;;;;;;;;;;;;;;;;;;;
2022/04/12 13:26:39;;;;;;;;;;;;;;;18.85;27.41;101173.17;103479;1316;73684;-84
2022/04/12 13:29:34;;;;;;;;;;;;;;;18.87;27.61;101174.48;103667;1317;74235;-81
2022/04/12 13:32:20;;;;;;;;;;;;;;;18.90;27.47;101177.05;103714;1318;62261;-81
2022/04/12 13:34:54;;;;;;;;;;;;;;;18.89;27.38;101173.86;103697;1317;61900;-82
2022/04/12 13:37:39;;;;;;;;;;;;;;;18.87;27.21;101169.33;103559;1317;73580;-84
2022/04/12 13:40:08;;;;;;;;;;;;;;;18.88;27.42;101172.31;104160;1313;76667;-85
2022/04/12 13:42:46;;;;;;;;;;;;;;;;;;;;;
2022/04/12 13:45:29;;;;;;;;;;;;;;;18.92;27.39;101174.73;104296;1313;62523;-81
2022/04/12 13:48:36;;;;;;;;;;;;;;;;;;;;;
2022/04/12 13:51:52;;;;;;;;;;;;;;;19.00;27.93;101177.91;103052;1323;74417;-83
2022/04/12 13:54:56;;;;;;;;;;;;;;;;;;;;;
2022/04/12 13:57:55;;;;;;;;;;;;;;;;;;;;;
2022/04/12 14:00:38;;;;;;;;;;;;;;;19.12;28.56;101171.48;103487;1319;72857;-84